createdAt,value
2023-05-22T00:00:58.895Z,30.62
2023-05-22T00:01:58.904Z,32.23
2023-05-22T00:02:59.311Z,29.97
2023-05-22T00:03:58.852Z,30.62
2023-05-22T00:04:59.006Z,30.62
2023-05-22T00:05:58.891Z,30.62
2023-05-22T00:06:58.829Z,30.29
2023-05-22T00:07:58.843Z,30.45
2023-05-22T00:08:58.807Z,30.62
2023-05-22T00:09:58.793Z,30.62
2023-05-22T00:10:58.791Z,30.45
2023-05-22T00:11:58.769Z,30.62
2023-05-22T00:12:59.552Z,30.62
2023-05-22T00:13:58.760Z,30.62
2023-05-22T00:14:58.757Z,30.62
2023-05-22T00:15:58.740Z,30.62
2023-05-22T00:16:59.077Z,30.29
2023-05-22T00:17:58.778Z,30.45
2023-05-22T00:18:58.710Z,30.62
2023-05-22T00:19:58.691Z,30.45
2023-05-22T00:20:58.681Z,30.45
2023-05-22T00:21:58.971Z,30.78
2023-05-22T00:22:58.665Z,30.62
2023-05-22T00:23:58.634Z,30.78
2023-05-22T00:24:58.636Z,30.78
2023-05-22T00:25:58.988Z,30.62
2023-05-22T00:26:58.927Z,30.78
2023-05-22T00:27:58.620Z,30.62
2023-05-22T00:28:58.601Z,30.45
2023-05-22T00:29:58.620Z,30.62
2023-05-22T00:30:59.014Z,30.62
2023-05-22T00:31:58.575Z,30.78
2023-05-22T00:32:58.552Z,30.62
2023-05-22T00:33:58.599Z,30.62
2023-05-22T00:34:58.544Z,30.78
2023-05-22T00:35:58.888Z,30.62
2023-05-22T00:36:58.504Z,30.78
2023-05-22T00:37:58.523Z,30.78
2023-05-22T00:38:58.494Z,30.94
2023-05-22T00:39:58.782Z,30.62
2023-05-22T00:40:58.839Z,30.78
2023-05-22T00:41:58.490Z,30.78
2023-05-22T00:42:58.439Z,30.94
2023-05-22T00:43:58.461Z,30.62
2023-05-22T00:44:58.816Z,30.62
2023-05-22T00:45:58.415Z,30.62
2023-05-22T00:46:58.485Z,30.62
2023-05-22T00:47:58.450Z,30.78
2023-05-22T00:48:58.383Z,30.62
2023-05-22T00:49:58.768Z,30.45
2023-05-22T00:50:58.357Z,30.78
2023-05-22T00:51:58.363Z,30.62
2023-05-22T00:52:58.362Z,30.62
2023-05-22T00:53:58.593Z,30.62
2023-05-22T00:54:58.661Z,30.62
2023-05-22T00:55:58.325Z,30.62
2023-05-22T00:56:58.311Z,30.78
2023-05-22T00:57:58.305Z,30.29
2023-05-22T00:58:58.646Z,29.97
2023-05-22T00:59:58.288Z,33.19
2023-05-22T01:00:58.292Z,30.62
2023-05-22T01:01:58.261Z,30.45
2023-05-22T01:02:58.312Z,30.62
2023-05-22T01:03:58.314Z,30.62
2023-05-22T01:04:58.215Z,30.78
2023-05-22T01:05:58.212Z,30.62
2023-05-22T01:06:58.213Z,30.94
2023-05-22T01:07:58.225Z,30.62
2023-05-22T01:08:58.508Z,30.78
2023-05-22T01:09:58.150Z,30.62
2023-05-22T01:10:58.153Z,30.45
2023-05-22T01:11:58.143Z,30.62
2023-05-22T01:12:58.441Z,30.62
2023-05-22T01:13:58.420Z,31.10
2023-05-22T01:14:58.109Z,30.78
2023-05-22T01:15:58.118Z,30.78
2023-05-22T01:16:58.079Z,30.78
2023-05-22T01:17:58.445Z,30.78
2023-05-22T01:18:58.106Z,30.62
2023-05-22T01:19:58.049Z,30.94
2023-05-22T01:20:58.054Z,30.29
2023-05-22T01:21:58.367Z,30.62
2023-05-22T01:22:58.652Z,30.62
2023-05-22T01:23:57.992Z,32.87
2023-05-22T01:24:57.994Z,30.45
2023-05-22T01:25:57.995Z,30.62
2023-05-22T01:26:58.886Z,30.62
2023-05-22T01:27:57.985Z,30.62
2023-05-22T01:28:57.987Z,30.62
2023-05-22T01:29:57.994Z,30.94
2023-05-22T01:30:57.971Z,30.62
2023-05-22T01:31:58.312Z,29.97
2023-05-22T01:32:58.000Z,32.39
2023-05-22T01:33:58.153Z,30.62
2023-05-22T01:34:57.925Z,31.10
2023-05-22T01:35:58.477Z,32.39
2023-05-22T01:36:58.673Z,30.94
2023-05-22T01:37:57.892Z,30.45
2023-05-22T01:38:57.840Z,30.94
2023-05-22T01:39:57.833Z,30.62
2023-05-22T01:40:58.204Z,30.78
2023-05-22T01:41:57.858Z,31.10
2023-05-22T01:42:57.807Z,30.78
2023-05-22T01:43:57.810Z,30.78
2023-05-22T01:44:57.766Z,31.26
2023-05-22T01:45:58.298Z,30.78
2023-05-22T01:46:57.759Z,30.62
2023-05-22T01:47:57.842Z,30.45
2023-05-22T01:48:57.744Z,30.94
2023-05-22T01:49:57.764Z,31.10
2023-05-22T01:50:58.088Z,31.58
2023-05-22T01:51:57.704Z,31.74
2023-05-22T01:52:57.685Z,30.78
2023-05-22T01:53:57.681Z,30.62
2023-05-22T01:54:58.012Z,30.94
2023-05-22T01:55:57.663Z,30.62
2023-05-22T01:56:57.670Z,32.87
2023-05-22T01:57:57.625Z,30.62
2023-05-22T01:58:57.613Z,30.62
2023-05-22T01:59:57.655Z,30.62
2023-05-22T02:00:57.669Z,30.45
2023-05-22T02:01:57.598Z,30.45
2023-05-22T02:02:57.665Z,30.29
2023-05-22T02:03:57.926Z,30.62
2023-05-22T02:04:57.892Z,30.29
2023-05-22T02:05:57.547Z,30.62
2023-05-22T02:06:57.552Z,31.26
2023-05-22T02:07:57.520Z,30.29
2023-05-22T02:08:57.910Z,30.29
2023-05-22T02:09:57.495Z,30.62
2023-05-22T02:10:57.492Z,30.62
2023-05-22T02:11:57.511Z,31.42
2023-05-22T02:12:57.507Z,30.62
2023-05-22T02:13:57.736Z,30.62
2023-05-22T02:14:57.433Z,30.62
2023-05-22T02:15:57.497Z,31.58
2023-05-22T02:16:57.431Z,31.10
2023-05-22T02:17:58.269Z,30.94
2023-05-22T02:18:57.837Z,30.29
2023-05-22T02:19:57.384Z,30.94
2023-05-22T02:20:57.400Z,30.62
2023-05-22T02:21:57.382Z,31.42
2023-05-22T02:22:57.690Z,30.62
2023-05-22T02:23:57.328Z,34.64
2023-05-22T02:24:57.350Z,33.52
2023-05-22T02:25:57.320Z,31.58
2023-05-22T02:26:57.409Z,33.03
2023-05-22T02:27:57.302Z,33.84
2023-05-22T02:28:57.296Z,33.35
2023-05-22T02:29:57.287Z,32.71
2023-05-22T02:30:57.272Z,31.42
2023-05-22T02:31:57.255Z,33.84
2023-05-22T02:32:57.575Z,34.00
2023-05-22T02:33:57.256Z,32.87
2023-05-22T02:34:57.214Z,32.23
2023-05-22T02:35:57.259Z,31.42
2023-05-22T02:36:57.538Z,31.58
2023-05-22T02:37:57.168Z,33.35
2023-05-22T02:38:57.187Z,31.42
2023-05-22T02:39:57.157Z,31.26
2023-05-22T02:40:57.149Z,33.52
2023-05-22T02:41:57.805Z,31.42
2023-05-22T02:42:57.127Z,34.64
2023-05-22T02:43:57.057Z,31.26
2023-05-22T02:44:57.109Z,32.39
2023-05-22T02:45:57.409Z,32.87
2023-05-22T02:46:57.497Z,33.19
2023-05-22T02:47:57.080Z,31.58
2023-05-22T02:48:56.999Z,31.90
2023-05-22T02:49:56.979Z,32.23
2023-05-22T02:50:57.317Z,33.84
2023-05-22T02:51:56.984Z,31.26
2023-05-22T02:52:56.957Z,39.48
2023-05-22T02:53:56.930Z,33.35
2023-05-22T02:54:56.925Z,32.07
2023-05-22T02:55:57.264Z,34.80
2023-05-22T02:56:56.910Z,33.19
2023-05-22T02:57:56.872Z,35.29
2023-05-22T02:58:56.901Z,33.68
2023-05-22T02:59:56.863Z,33.84
2023-05-22T03:00:57.330Z,33.35
2023-05-22T03:01:56.949Z,32.39
2023-05-22T03:02:56.922Z,32.23
2023-05-22T03:03:56.936Z,33.03
2023-05-22T03:04:56.831Z,32.55
2023-05-22T03:05:56.777Z,33.19
2023-05-22T03:06:56.757Z,30.78
2023-05-22T03:07:56.762Z,32.71
2023-05-22T03:08:56.738Z,42.70
2023-05-22T03:09:56.757Z,32.71
2023-05-22T03:10:56.726Z,32.23
2023-05-22T03:11:56.695Z,32.23
2023-05-22T03:12:56.689Z,32.07
2023-05-22T03:13:56.676Z,31.26
2023-05-22T03:14:56.711Z,31.26
2023-05-22T03:15:56.690Z,38.35
2023-05-22T03:16:56.655Z,34.48
2023-05-22T03:17:56.667Z,32.07
2023-05-22T03:18:57.515Z,38.99
2023-05-22T03:19:56.636Z,38.03
2023-05-22T03:20:56.599Z,32.71
2023-05-22T03:21:56.592Z,33.84
2023-05-22T03:22:56.582Z,31.58
2023-05-22T03:23:56.588Z,32.23
2023-05-22T03:24:56.557Z,31.26
2023-05-22T03:25:56.561Z,32.55
2023-05-22T03:26:56.546Z,32.39
2023-05-22T03:27:56.521Z,31.74
2023-05-22T03:28:56.595Z,32.07
2023-05-22T03:29:56.506Z,31.10
2023-05-22T03:30:56.494Z,31.10
2023-05-22T03:31:56.460Z,31.58
2023-05-22T03:32:56.826Z,32.07
2023-05-22T03:33:56.793Z,31.26
2023-05-22T03:34:56.435Z,31.10
2023-05-22T03:35:56.441Z,31.58
2023-05-22T03:36:56.421Z,31.42
2023-05-22T03:37:57.283Z,31.90
2023-05-22T03:38:56.406Z,31.26
2023-05-22T03:39:56.393Z,31.58
2023-05-22T03:40:56.417Z,31.42
2023-05-22T03:41:56.351Z,31.90
2023-05-22T03:42:56.718Z,33.35
2023-05-22T03:43:56.408Z,30.94
2023-05-22T03:44:56.348Z,31.10
2023-05-22T03:45:56.376Z,31.42
2023-05-22T03:46:56.386Z,32.39
2023-05-22T03:47:57.033Z,32.39
2023-05-22T03:48:56.302Z,31.58
2023-05-22T03:49:56.267Z,32.07
2023-05-22T03:50:56.269Z,31.74
2023-05-22T03:51:56.282Z,32.07
2023-05-22T03:52:56.295Z,31.58
2023-05-22T03:53:56.244Z,38.99
2023-05-22T03:54:56.249Z,31.58
2023-05-22T03:55:56.178Z,32.07
2023-05-22T03:56:56.871Z,32.07
2023-05-22T03:57:56.164Z,31.10
2023-05-22T03:58:56.167Z,32.07
2023-05-22T03:59:56.126Z,32.07
2023-05-22T04:00:56.190Z,31.26
2023-05-22T04:01:56.486Z,30.94
2023-05-22T04:02:56.205Z,31.10
2023-05-22T04:03:56.104Z,31.42
2023-05-22T04:04:56.140Z,33.19
2023-05-22T04:05:56.369Z,34.00
2023-05-22T04:06:56.177Z,31.58
2023-05-22T04:07:56.037Z,31.10
2023-05-22T04:08:56.047Z,31.42
2023-05-22T04:09:56.009Z,31.10
2023-05-22T04:10:56.068Z,31.90
2023-05-22T04:11:56.179Z,32.55
2023-05-22T04:12:56.034Z,31.58
2023-05-22T04:13:55.983Z,31.10
2023-05-22T04:14:55.977Z,31.58
2023-05-22T04:15:56.310Z,33.84
2023-05-22T04:16:55.976Z,31.58
2023-05-22T04:17:55.968Z,32.39
2023-05-22T04:18:55.992Z,32.07
2023-05-22T04:19:55.981Z,31.74
2023-05-22T04:20:56.194Z,36.09
2023-05-22T04:21:55.871Z,32.07
2023-05-22T04:22:55.859Z,32.39
2023-05-22T04:23:55.888Z,32.23
2023-05-22T04:24:56.246Z,31.42
2023-05-22T04:25:55.838Z,31.42
2023-05-22T04:26:55.807Z,32.23
2023-05-22T04:27:55.797Z,31.42
2023-05-22T04:28:55.778Z,33.03
2023-05-22T04:29:56.094Z,32.07
2023-05-22T04:30:55.834Z,31.42
2023-05-22T04:31:55.762Z,31.58
2023-05-22T04:32:55.803Z,31.58
2023-05-22T04:33:55.767Z,30.62
2023-05-22T04:34:55.742Z,33.84
2023-05-22T04:35:55.739Z,31.58
2023-05-22T04:36:55.689Z,32.39
2023-05-22T04:37:55.702Z,31.90
2023-05-22T04:38:55.717Z,31.26
2023-05-22T04:39:55.680Z,32.87
2023-05-22T04:40:55.640Z,40.77
2023-05-22T04:41:55.656Z,43.99
2023-05-22T04:42:55.626Z,40.12
2023-05-22T04:43:55.810Z,31.10
2023-05-22T04:44:55.610Z,31.10
2023-05-22T04:45:55.589Z,31.42
2023-05-22T04:46:55.651Z,31.74
2023-05-22T04:47:56.482Z,30.62
2023-05-22T04:48:55.895Z,32.07
2023-05-22T04:49:55.581Z,31.26
2023-05-22T04:50:55.558Z,31.10
2023-05-22T04:51:55.505Z,31.26
2023-05-22T04:52:55.557Z,30.94
2023-05-22T04:53:55.479Z,30.13
2023-05-22T04:54:55.498Z,31.74
2023-05-22T04:55:55.495Z,31.26
2023-05-22T04:56:55.470Z,33.19
2023-05-22T04:57:55.584Z,33.68
2023-05-22T04:58:55.469Z,30.62
2023-05-22T04:59:55.444Z,30.29
2023-05-22T05:00:55.433Z,31.10
2023-05-22T05:01:55.700Z,34.80
2023-05-22T05:02:55.436Z,41.41
2023-05-22T05:03:55.416Z,30.62
2023-05-22T05:04:55.401Z,31.74
2023-05-22T05:05:55.388Z,29.33
2023-05-22T05:06:55.771Z,31.74
2023-05-22T05:07:55.367Z,40.61
2023-05-22T05:08:55.315Z,29.81
2023-05-22T05:09:55.325Z,29.49
2023-05-22T05:10:55.308Z,30.45
2023-05-22T05:11:56.095Z,30.29
2023-05-22T05:12:55.270Z,30.94
2023-05-22T05:13:55.340Z,31.42
2023-05-22T05:14:55.289Z,29.97
2023-05-22T05:15:55.516Z,30.29
2023-05-22T05:16:55.706Z,31.42
2023-05-22T05:17:55.261Z,30.62
2023-05-22T05:18:55.207Z,30.62
2023-05-22T05:19:55.262Z,29.97
2023-05-22T05:20:55.589Z,29.33
2023-05-22T05:21:55.246Z,29.33
2023-05-22T05:22:55.204Z,30.45
2023-05-22T05:23:55.156Z,29.49
2023-05-22T05:24:55.473Z,29.65
2023-05-22T05:25:55.662Z,31.74
2023-05-22T05:26:55.105Z,29.00
2023-05-22T05:27:55.114Z,29.49
2023-05-22T05:28:55.089Z,29.49
2023-05-22T05:29:55.105Z,29.17
2023-05-22T05:30:55.087Z,29.00
2023-05-22T05:31:55.089Z,29.49
2023-05-22T05:32:55.094Z,29.00
2023-05-22T05:33:55.061Z,28.84
2023-05-22T05:34:55.068Z,28.84
2023-05-22T05:35:55.070Z,29.97
2023-05-22T05:36:55.028Z,29.33
2023-05-22T05:37:55.026Z,29.65
2023-05-22T05:38:54.995Z,29.65
2023-05-22T05:39:55.376Z,29.81
2023-05-22T05:40:54.971Z,30.45
2023-05-22T05:41:54.960Z,29.97
2023-05-22T05:42:54.951Z,29.00
2023-05-22T05:43:55.444Z,30.29
2023-05-22T05:44:54.947Z,29.33
2023-05-22T05:45:54.967Z,29.00
2023-05-22T05:46:54.961Z,30.94
2023-05-22T05:47:54.975Z,29.17
2023-05-22T05:48:55.249Z,28.52
2023-05-22T05:49:54.919Z,28.36
2023-05-22T05:50:54.917Z,29.00
2023-05-22T05:51:54.887Z,38.35
2023-05-22T05:52:54.872Z,37.06
2023-05-22T05:53:54.851Z,28.84
2023-05-22T05:54:54.843Z,28.68
2023-05-22T05:55:54.809Z,31.10
2023-05-22T05:56:54.860Z,29.97
2023-05-22T05:57:55.110Z,29.17
2023-05-22T05:58:55.139Z,29.00
2023-05-22T05:59:54.783Z,29.49
2023-05-22T06:00:54.756Z,29.33
2023-05-22T06:01:54.758Z,29.00
2023-05-22T06:02:55.338Z,29.17
2023-05-22T06:03:54.902Z,29.33
2023-05-22T06:04:54.746Z,29.17
2023-05-22T06:05:54.821Z,31.42
2023-05-22T06:06:55.230Z,29.17
2023-05-22T06:07:55.378Z,29.33
2023-05-22T06:08:54.681Z,29.33
2023-05-22T06:09:54.723Z,28.84
2023-05-22T06:10:54.650Z,29.00
2023-05-22T06:11:55.076Z,29.33
2023-05-22T06:12:54.639Z,29.17
2023-05-22T06:13:54.630Z,29.97
2023-05-22T06:14:54.700Z,29.65
2023-05-22T06:15:54.620Z,29.00
2023-05-22T06:16:55.207Z,29.00
2023-05-22T06:17:54.614Z,29.00
2023-05-22T06:18:54.613Z,28.84
2023-05-22T06:19:54.565Z,29.33
2023-05-22T06:20:54.669Z,29.65
2023-05-22T06:21:54.571Z,29.65
2023-05-22T06:22:54.531Z,29.00
2023-05-22T06:23:54.539Z,29.00
2023-05-22T06:24:54.524Z,29.00
2023-05-22T06:25:54.815Z,29.00
2023-05-22T06:26:54.506Z,29.49
2023-05-22T06:27:54.478Z,29.17
2023-05-22T06:28:54.563Z,29.33
2023-05-22T06:29:55.617Z,28.84
2023-05-22T06:30:54.463Z,29.33
2023-05-22T06:31:54.500Z,29.17
2023-05-22T06:32:54.568Z,29.00
2023-05-22T06:33:54.516Z,29.81
2023-05-22T06:34:54.412Z,29.33
2023-05-22T06:35:54.410Z,29.00
2023-05-22T06:36:54.414Z,29.00
2023-05-22T06:37:54.453Z,30.45
2023-05-22T06:38:54.353Z,28.84
2023-05-22T06:39:54.724Z,29.00
2023-05-22T06:40:54.738Z,28.84
2023-05-22T06:41:54.357Z,28.68
2023-05-22T06:42:54.324Z,30.78
2023-05-22T06:43:54.311Z,29.33
2023-05-22T06:44:54.717Z,29.49
2023-05-22T06:45:54.319Z,29.81
2023-05-22T06:46:54.286Z,29.17
2023-05-22T06:47:54.324Z,29.17
2023-05-22T06:48:54.254Z,29.49
2023-05-22T06:49:54.595Z,29.97
2023-05-22T06:50:54.243Z,30.62
2023-05-22T06:51:54.275Z,29.49
2023-05-22T06:52:54.219Z,30.78
2023-05-22T06:53:54.660Z,29.97
2023-05-22T06:54:54.548Z,31.26
2023-05-22T06:55:54.220Z,30.62
2023-05-22T06:56:54.158Z,26.75
2023-05-22T06:57:54.170Z,26.91
2023-05-22T06:58:54.487Z,26.75
2023-05-22T06:59:54.159Z,26.75
2023-05-22T07:00:54.156Z,26.75
2023-05-22T07:01:54.300Z,26.75
2023-05-22T07:02:54.167Z,27.39
2023-05-22T07:03:54.139Z,26.75
2023-05-22T07:04:54.103Z,26.75
2023-05-22T07:05:54.169Z,26.75
2023-05-22T07:06:54.077Z,33.35
2023-05-22T07:07:54.440Z,26.59
2023-05-22T07:08:54.056Z,27.55
2023-05-22T07:09:54.032Z,26.75
2023-05-22T07:10:54.028Z,26.59
2023-05-22T07:11:54.032Z,26.91
2023-05-22T07:12:54.056Z,26.75
2023-05-22T07:13:54.017Z,25.78
2023-05-22T07:14:53.990Z,26.75
2023-05-22T07:15:53.991Z,26.91
2023-05-22T07:16:54.502Z,26.59
2023-05-22T07:17:54.340Z,26.91
2023-05-22T07:18:53.968Z,26.75
2023-05-22T07:19:53.961Z,26.75
2023-05-22T07:20:53.924Z,26.75
2023-05-22T07:21:54.272Z,26.75
2023-05-22T07:22:53.917Z,26.75
2023-05-22T07:23:53.922Z,26.75
2023-05-22T07:24:53.878Z,26.75
2023-05-22T07:25:53.879Z,26.59
2023-05-22T07:26:54.809Z,26.75
2023-05-22T07:27:53.852Z,26.43
2023-05-22T07:28:53.851Z,26.75
2023-05-22T07:29:53.850Z,26.75
2023-05-22T07:30:54.228Z,26.10
2023-05-22T07:31:54.125Z,26.75
2023-05-22T07:32:53.836Z,26.59
2023-05-22T07:33:53.796Z,26.75
2023-05-22T07:34:53.782Z,26.75
2023-05-22T07:35:54.112Z,26.75
2023-05-22T07:36:53.792Z,26.59
2023-05-22T07:37:53.780Z,26.75
2023-05-22T07:38:53.745Z,26.59
2023-05-22T07:39:53.746Z,26.75
2023-05-22T07:40:53.926Z,26.75
2023-05-22T07:41:54.577Z,26.75
2023-05-22T07:42:53.718Z,26.75
2023-05-22T07:43:53.721Z,26.59
2023-05-22T07:44:53.723Z,27.71
2023-05-22T07:45:54.308Z,29.49
2023-05-22T07:46:53.664Z,30.13
2023-05-22T07:47:55.538Z,30.13
2023-05-22T07:48:53.697Z,30.13
2023-05-22T07:49:53.969Z,28.68
2023-05-22T07:50:53.913Z,28.52
2023-05-22T07:51:53.605Z,28.36
2023-05-22T07:52:53.586Z,28.52
2023-05-22T07:53:53.579Z,31.58
2023-05-22T07:54:53.912Z,29.97
2023-05-22T07:55:53.597Z,29.97
2023-05-22T07:56:53.562Z,30.13
2023-05-22T07:57:53.582Z,30.13
2023-05-22T07:58:53.564Z,30.78
2023-05-22T07:59:54.285Z,29.97
2023-05-22T08:00:53.525Z,29.65
2023-05-22T08:01:54.133Z,29.65
2023-05-22T08:02:53.560Z,35.29
2023-05-22T08:03:53.939Z,30.62
2023-05-22T08:04:53.940Z,36.74
2023-05-22T08:05:53.466Z,30.62
2023-05-22T08:06:53.451Z,29.49
2023-05-22T08:07:53.442Z,30.13
2023-05-22T08:08:53.469Z,29.65
2023-05-22T08:09:53.434Z,29.97
2023-05-22T08:11:03.992Z,30.62
2023-05-22T08:11:53.434Z,31.10
2023-05-22T08:12:53.393Z,29.81
2023-05-22T08:13:53.707Z,30.13
2023-05-22T08:14:53.365Z,31.10
2023-05-22T08:16:00.602Z,30.13
2023-05-22T08:16:53.428Z,30.62
2023-05-22T08:17:53.667Z,30.29
2023-05-22T08:18:54.241Z,27.71
2023-05-22T08:19:53.428Z,26.91
2023-05-22T08:20:54.882Z,26.75
2023-05-22T08:21:53.307Z,27.88
2023-05-22T08:22:53.501Z,26.75
2023-05-22T08:23:53.280Z,26.59
2023-05-22T08:24:53.259Z,26.75
2023-05-22T08:25:53.265Z,26.43
2023-05-22T08:26:53.996Z,26.75
2023-05-22T08:27:53.619Z,26.75
2023-05-22T08:28:53.230Z,27.88
2023-05-22T08:29:53.224Z,26.91
2023-05-22T08:30:53.206Z,29.49
2023-05-22T08:31:53.700Z,27.39
2023-05-22T08:32:53.315Z,29.17
2023-05-22T08:33:53.168Z,32.07
2023-05-22T08:34:53.183Z,34.97
2023-05-22T08:35:53.148Z,27.88
2023-05-22T08:36:53.442Z,29.97
2023-05-22T08:37:53.194Z,30.94
2023-05-22T08:38:54.089Z,31.10
2023-05-22T08:39:53.129Z,30.45
2023-05-22T08:40:53.152Z,32.23
2023-05-22T08:41:53.839Z,30.78
2023-05-22T08:42:53.095Z,32.07
2023-05-22T08:43:53.072Z,30.78
2023-05-22T08:44:53.113Z,30.62
2023-05-22T08:45:53.089Z,30.62
2023-05-22T08:46:53.110Z,30.94
2023-05-22T08:47:53.063Z,30.62
2023-05-22T08:48:53.082Z,30.62
2023-05-22T08:49:53.013Z,30.45
2023-05-22T08:50:53.041Z,32.87
2023-05-22T08:51:53.025Z,30.62
2023-05-22T08:52:53.027Z,30.13
2023-05-22T08:53:52.980Z,29.97
2023-05-22T08:54:53.416Z,29.97
2023-05-22T08:55:52.992Z,30.94
2023-05-22T08:56:56.791Z,36.09
2023-05-22T08:57:52.957Z,29.97
2023-05-22T08:58:52.934Z,29.97
2023-05-22T08:59:53.605Z,31.10
2023-05-22T09:00:52.909Z,30.45
2023-05-22T09:01:52.911Z,30.29
2023-05-22T09:02:53.083Z,31.10
2023-05-22T09:03:52.897Z,33.35
2023-05-22T09:04:53.224Z,30.45
2023-05-22T09:05:52.863Z,32.23
2023-05-22T09:06:52.874Z,30.78
2023-05-22T09:07:52.889Z,30.45
2023-05-22T09:08:53.172Z,30.62
2023-05-22T09:09:53.218Z,30.45
2023-05-22T09:10:52.809Z,30.45
2023-05-22T09:11:52.803Z,30.94
2023-05-22T09:12:52.806Z,29.97
2023-05-22T09:13:52.797Z,30.13
2023-05-22T09:14:53.443Z,36.90
2023-05-22T09:15:52.800Z,31.10
2023-05-22T09:16:52.804Z,31.10
2023-05-22T09:17:52.850Z,30.94
2023-05-22T09:18:53.116Z,30.94
2023-05-22T09:19:53.053Z,32.39
2023-05-22T09:20:52.772Z,32.23
2023-05-22T09:21:52.709Z,31.10
2023-05-22T09:22:53.048Z,31.26
2023-05-22T09:23:52.710Z,30.94
2023-05-22T09:24:52.696Z,39.16
2023-05-22T09:25:52.680Z,30.94
2023-05-22T09:26:52.716Z,30.94
2023-05-22T09:27:53.066Z,30.94
2023-05-22T09:28:52.622Z,30.94
2023-05-22T09:29:52.631Z,30.94
2023-05-22T09:30:52.680Z,30.78
2023-05-22T09:31:52.669Z,30.78
2023-05-22T09:32:53.091Z,30.45
2023-05-22T09:33:52.588Z,31.10
2023-05-22T09:34:52.584Z,31.10
2023-05-22T09:35:52.577Z,31.26
2023-05-22T09:36:52.855Z,31.90
2023-05-22T09:37:52.732Z,31.10
2023-05-22T09:38:52.573Z,30.94
2023-05-22T09:39:52.620Z,31.58
2023-05-22T09:40:52.543Z,30.78
2023-05-22T09:41:53.287Z,30.78
2023-05-22T09:42:52.503Z,35.77
2023-05-22T09:43:52.503Z,31.26
2023-05-22T09:44:52.488Z,31.42
2023-05-22T09:45:52.800Z,30.29
2023-05-22T09:46:52.808Z,30.13
2023-05-22T09:47:52.468Z,29.81
2023-05-22T09:48:52.454Z,29.97
2023-05-22T09:49:52.410Z,29.97
2023-05-22T09:50:53.363Z,30.13
2023-05-22T09:51:52.383Z,30.13
2023-05-22T09:52:52.545Z,29.81
2023-05-22T09:53:52.384Z,29.49
2023-05-22T09:54:52.411Z,30.29
2023-05-22T09:55:52.740Z,29.81
2023-05-22T09:56:52.366Z,30.45
2023-05-22T09:57:52.345Z,30.62
2023-05-22T09:58:52.323Z,38.83
2023-05-22T09:59:52.308Z,30.13
2023-05-22T10:00:52.846Z,30.29
2023-05-22T10:01:52.410Z,29.49
2023-05-22T10:02:52.312Z,32.87
2023-05-22T10:03:52.296Z,29.49
2023-05-22T10:04:52.862Z,29.17
2023-05-22T10:05:52.295Z,28.52
2023-05-22T10:06:52.267Z,28.36
2023-05-22T10:07:52.237Z,28.36
2023-05-22T10:08:52.223Z,28.52
2023-05-22T10:09:52.937Z,28.20
2023-05-22T10:10:52.231Z,28.84
2023-05-22T10:11:52.208Z,28.68
2023-05-22T10:12:52.188Z,28.52
2023-05-22T10:13:52.640Z,29.17
2023-05-22T10:14:52.523Z,28.04
2023-05-22T10:15:52.185Z,27.88
2023-05-22T10:16:52.156Z,27.55
2023-05-22T10:17:52.207Z,30.62
2023-05-22T10:18:52.472Z,27.07
2023-05-22T10:19:52.191Z,27.39
2023-05-22T10:20:52.112Z,26.75
2023-05-22T10:21:52.121Z,26.75
2023-05-22T10:22:52.120Z,26.43
2023-05-22T10:23:52.416Z,27.07
2023-05-22T10:24:52.075Z,26.75
2023-05-22T10:25:52.083Z,26.91
2023-05-22T10:26:52.049Z,26.59
2023-05-22T10:27:52.403Z,28.52
2023-05-22T10:28:52.118Z,27.71
2023-05-22T10:29:52.034Z,27.55
2023-05-22T10:30:52.000Z,28.52
2023-05-22T10:31:52.019Z,28.84
2023-05-22T10:32:52.080Z,29.33
2023-05-22T10:33:52.001Z,30.13
2023-05-22T10:34:51.969Z,29.49
2023-05-22T10:35:51.956Z,29.97
2023-05-22T10:36:52.316Z,30.45
2023-05-22T10:37:52.322Z,29.17
2023-05-22T10:38:51.951Z,29.49
2023-05-22T10:39:51.918Z,28.68
2023-05-22T10:40:51.921Z,28.52
2023-05-22T10:41:52.731Z,28.68
2023-05-22T10:42:51.892Z,29.17
2023-05-22T10:43:51.991Z,29.33
2023-05-22T10:44:51.887Z,30.45
2023-05-22T10:45:51.909Z,29.81
2023-05-22T10:46:52.206Z,29.65
2023-05-22T10:47:51.915Z,30.45
2023-05-22T10:48:51.838Z,29.97
2023-05-22T10:49:51.831Z,30.29
2023-05-22T10:50:52.587Z,29.49
2023-05-22T10:51:52.142Z,29.49
2023-05-22T10:52:51.820Z,29.97
2023-05-22T10:53:51.814Z,30.13
2023-05-22T10:54:51.797Z,30.13
2023-05-22T10:55:52.132Z,29.97
2023-05-22T10:56:51.754Z,29.97
2023-05-22T10:57:51.760Z,29.97
2023-05-22T10:58:51.735Z,30.29
2023-05-22T10:59:51.764Z,29.97
2023-05-22T11:00:51.765Z,30.13
2023-05-22T11:01:51.935Z,30.45
2023-05-22T11:02:51.796Z,29.81
2023-05-22T11:03:51.905Z,29.49
2023-05-22T11:04:52.073Z,29.65
2023-05-22T11:05:52.049Z,29.49
2023-05-22T11:06:51.667Z,31.26
2023-05-22T11:07:51.631Z,30.62
2023-05-22T11:08:51.639Z,30.62
2023-05-22T11:09:52.372Z,30.62
2023-05-22T11:10:51.603Z,30.29
2023-05-22T11:11:51.598Z,30.78
2023-05-22T11:12:51.634Z,30.45
2023-05-22T11:13:51.654Z,30.62
2023-05-22T11:14:51.934Z,30.29
2023-05-22T11:15:51.548Z,30.78
2023-05-22T11:16:51.650Z,30.45
2023-05-22T11:17:51.655Z,30.78
2023-05-22T11:18:51.953Z,30.45
2023-05-22T11:19:52.441Z,29.97
2023-05-22T11:20:51.563Z,29.33
2023-05-22T11:21:51.546Z,28.36
2023-05-22T11:22:51.518Z,29.97
2023-05-22T11:23:51.780Z,28.20
2023-05-22T11:24:51.489Z,28.52
2023-05-22T11:25:51.577Z,28.84
2023-05-22T11:26:51.445Z,29.33
2023-05-22T11:27:51.431Z,27.88
2023-05-22T11:28:51.965Z,28.36
2023-05-22T11:29:51.418Z,27.88
2023-05-22T11:30:51.455Z,27.88
2023-05-22T11:31:51.484Z,27.39
2023-05-22T11:32:51.784Z,28.04
2023-05-22T11:33:51.749Z,28.68
2023-05-22T11:34:51.395Z,28.36
2023-05-22T11:35:51.375Z,27.39
2023-05-22T11:36:51.412Z,27.39
2023-05-22T11:37:51.703Z,28.68
2023-05-22T11:38:51.355Z,27.39
2023-05-22T11:39:51.325Z,31.58
2023-05-22T11:40:51.346Z,30.62
2023-05-22T11:41:51.310Z,29.00
2023-05-22T11:42:51.659Z,29.81
2023-05-22T11:43:51.319Z,29.97
2023-05-22T11:44:51.263Z,30.78
2023-05-22T11:45:51.264Z,30.62
2023-05-22T11:46:51.625Z,30.62
2023-05-22T11:47:51.619Z,31.26
2023-05-22T11:48:51.241Z,30.13
2023-05-22T11:49:51.223Z,30.29
2023-05-22T11:50:51.237Z,30.78
2023-05-22T11:51:51.529Z,30.94
2023-05-22T11:52:51.204Z,30.78
2023-05-22T11:53:51.214Z,30.45
2023-05-22T11:54:51.190Z,30.94
2023-05-22T11:55:51.152Z,32.71
2023-05-22T11:56:51.541Z,31.58
2023-05-22T11:57:51.131Z,29.81
2023-05-22T11:58:51.124Z,31.26
2023-05-22T11:59:51.128Z,30.94
2023-05-22T12:00:51.189Z,29.65
2023-05-22T12:01:51.421Z,31.42
2023-05-22T12:02:51.165Z,30.45
2023-05-22T12:03:51.141Z,29.97
2023-05-22T12:04:51.062Z,29.49
2023-05-22T12:05:51.621Z,30.62
2023-05-22T12:06:51.354Z,29.97
2023-05-22T12:07:51.048Z,29.65
2023-05-22T12:08:51.116Z,29.49
2023-05-22T12:09:51.027Z,29.65
2023-05-22T12:10:51.776Z,30.13
2023-05-22T12:11:50.988Z,29.81
2023-05-22T12:12:51.129Z,29.49
2023-05-22T12:13:50.977Z,29.65
2023-05-22T12:14:51.004Z,30.13
2023-05-22T12:15:50.986Z,29.17
2023-05-22T12:16:51.012Z,29.65
2023-05-22T12:17:50.947Z,29.00
2023-05-22T12:18:50.988Z,28.52
2023-05-22T12:20:11.933Z,28.36
2023-05-22T12:20:50.906Z,27.39
2023-05-22T12:21:50.889Z,27.88
2023-05-22T12:22:50.916Z,27.88
2023-05-22T12:23:50.885Z,28.04
2023-05-22T12:24:50.856Z,30.13
2023-05-22T12:25:50.845Z,27.55
2023-05-22T12:26:50.898Z,27.55
2023-05-22T12:27:50.838Z,27.55
2023-05-22T12:28:50.854Z,27.07
2023-05-22T12:29:50.928Z,27.71
2023-05-22T12:30:50.820Z,27.55
2023-05-22T12:31:51.327Z,27.71
2023-05-22T12:32:50.951Z,26.91
2023-05-22T12:33:51.166Z,26.75
2023-05-22T12:34:50.794Z,29.00
2023-05-22T12:35:50.825Z,26.91
2023-05-22T12:36:50.788Z,27.39
2023-05-22T12:37:50.889Z,27.88
2023-05-22T12:38:51.231Z,27.88
2023-05-22T12:39:50.781Z,27.39
2023-05-22T12:40:50.727Z,26.91
2023-05-22T12:41:50.758Z,29.17
2023-05-22T12:42:50.720Z,30.62
2023-05-22T12:43:50.893Z,30.29
2023-05-22T12:44:50.668Z,29.49
2023-05-22T12:45:50.683Z,29.65
2023-05-22T12:46:50.754Z,29.49
2023-05-22T12:47:50.678Z,29.49
2023-05-22T12:48:50.625Z,28.52
2023-05-22T12:49:50.634Z,29.00
2023-05-22T12:50:50.615Z,28.84
2023-05-22T12:51:50.610Z,28.36
2023-05-22T12:52:51.112Z,28.52